Time;durP1;ratioP1;P1;durP2;ratioP2;P2;SDS_P1;SDS_P2;PMS_P1;PMS_P2;Temp;Humidity;BMP_temperature;BMP_pressure;BME280_temperature;BME280_humidity;BME280_pressure;Samples;Min_cycle;Max_cycle;Signal;HPM_P1;HPM_P2
2023/03/06 00:00:35;;;;;;;2.33;0.60;;;2.70;99.90;;;;;;4975859;28;20403;-79
2023/03/06 00:03:01;;;;;;;3.00;0.70;;;2.70;99.90;;;;;;4978810;28;20448;-80
2023/03/06 00:05:27;;;;;;;3.90;0.50;;;2.70;99.90;;;;;;4990686;28;20405;-79
2023/03/06 00:07:52;;;;;;;2.40;0.40;;;2.70;99.90;;;;;;4990039;28;20781;-79
2023/03/06 00:10:22;;;;;;;3.80;0.52;;;2.60;99.90;;;;;;4991772;28;20420;-80
2023/03/06 00:12:52;;;;;;;3.25;0.40;;;2.60;99.90;;;;;;4975222;28;20416;-79
2023/03/06 00:15:18;;;;;;;2.47;0.50;;;2.60;99.90;;;;;;4988002;28;20413;-79
2023/03/06 00:17:43;;;;;;;2.25;0.50;;;2.60;99.90;;;;;;4994287;28;20463;-79
2023/03/06 00:20:12;;;;;;;3.10;0.63;;;2.60;99.90;;;;;;4984310;28;20501;-79
2023/03/06 00:22:39;;;;;;;3.15;0.63;;;2.60;99.90;;;;;;4968035;28;20437;-79
2023/03/06 00:25:06;;;;;;;3.97;0.70;;;2.60;99.90;;;;;;5011890;28;20415;-79
2023/03/06 00:27:32;;;;;;;4.68;0.70;;;2.60;99.90;;;;;;4984590;28;20416;-80
2023/03/06 00:29:59;;;;;;;2.30;0.75;;;2.50;99.90;;;;;;4993376;28;20495;-79
2023/03/06 00:32:26;;;;;;;2.78;0.50;;;2.60;99.90;;;;;;4990934;28;20764;-79
2023/03/06 00:34:53;;;;;;;4.38;0.65;;;2.50;99.90;;;;;;5011911;28;20409;-79
2023/03/06 00:37:19;;;;;;;3.83;0.70;;;2.50;99.90;;;;;;4969232;28;20444;-79
2023/03/06 00:39:45;;;;;;;2.27;0.50;;;2.50;99.90;;;;;;4993607;28;20448;-79
2023/03/06 00:42:12;;;;;;;3.60;0.90;;;2.50;99.90;;;;;;4993134;28;20471;-79
2023/03/06 00:44:38;;;;;;;3.92;0.90;;;2.50;99.90;;;;;;4985961;28;20501;-79
2023/03/06 00:47:04;;;;;;;3.47;0.80;;;2.50;99.90;;;;;;5003427;28;20467;-79
2023/03/06 00:49:29;;;;;;;4.68;0.82;;;2.50;99.90;;;;;;5013180;28;20404;-79
2023/03/06 00:51:55;;;;;;;3.90;0.90;;;2.50;99.90;;;;;;4982151;28;20459;-79
2023/03/06 00:54:20;;;;;;;7.10;0.80;;;2.60;99.90;;;;;;4976754;28;20412;-80
2023/03/06 00:56:46;;;;;;;4.43;0.73;;;2.60;99.90;;;;;;5010375;28;20484;-79
2023/03/06 00:59:12;;;;;;;4.40;0.70;;;2.60;99.90;;;;;;4994794;28;20408;-80
2023/03/06 01:01:37;;;;;;;3.35;0.70;;;2.60;99.90;;;;;;4993341;28;20428;-80
2023/03/06 01:04:03;;;;;;;3.23;0.70;;;2.60;99.90;;;;;;4993434;28;20781;-80
2023/03/06 01:06:30;;;;;;;2.75;0.70;;;2.50;99.90;;;;;;4975206;28;20413;-80
2023/03/06 01:08:55;;;;;;;5.40;0.90;;;2.50;99.90;;;;;;4995720;28;20402;-80
2023/03/06 01:11:21;;;;;;;2.87;0.70;;;2.50;99.90;;;;;;5012485;28;20400;-79
2023/03/06 01:13:47;;;;;;;3.45;0.70;;;2.50;99.90;;;;;;5010525;28;20463;-80
2023/03/06 01:16:15;;;;;;;2.75;0.80;;;2.50;99.90;;;;;;5006108;28;20413;-80
2023/03/06 01:18:41;;;;;;;3.22;0.88;;;2.60;99.90;;;;;;4978237;28;20850;-80
2023/03/06 01:21:07;;;;;;;3.15;0.70;;;2.50;99.90;;;;;;4992444;28;20401;-80
2023/03/06 01:23:33;;;;;;;2.78;0.80;;;2.50;99.90;;;;;;4982330;28;20438;-80
2023/03/06 01:25:59;;;;;;;4.15;1.00;;;2.50;99.90;;;;;;5000372;28;20405;-80
2023/03/06 01:28:26;;;;;;;2.22;0.80;;;2.50;99.90;;;;;;4992200;28;20929;-80
2023/03/06 01:30:52;;;;;;;1.75;0.80;;;2.40;99.90;;;;;;4987963;28;20415;-80
2023/03/06 01:33:18;;;;;;;2.72;0.90;;;2.40;99.90;;;;;;4995212;28;20411;-80
2023/03/06 01:35:43;;;;;;;2.92;1.00;;;2.40;99.90;;;;;;4988964;28;20484;-80
2023/03/06 01:38:09;;;;;;;1.97;0.70;;;2.30;99.90;;;;;;4975900;28;20432;-80
2023/03/06 01:40:36;;;;;;;2.10;0.70;;;2.30;99.90;;;;;;5009811;28;20404;-80
2023/03/06 01:43:24;;;;;;;2.50;0.60;;;2.30;99.90;;;;;;5009998;28;20432;-81
2023/03/06 01:45:50;;;;;;;0.98;0.30;;;2.30;99.90;;;;;;5001872;28;20757;-80
2023/03/06 01:48:17;;;;;;;1.27;0.50;;;2.20;99.90;;;;;;4992247;28;20428;-79
2023/03/06 01:50:43;;;;;;;1.77;0.50;;;2.20;99.90;;;;;;5010405;28;20412;-80
2023/03/06 01:53:09;;;;;;;3.17;0.40;;;2.10;99.90;;;;;;4990602;28;20408;-80
2023/03/06 01:55:36;;;;;;;2.08;0.40;;;2.20;99.90;;;;;;4984077;28;20456;-80
2023/03/06 01:58:14;;;;;;;1.75;0.50;;;2.10;99.90;;;;;;4996584;28;20833;-80
2023/03/06 02:00:40;;;;;;;2.17;0.50;;;2.10;99.90;;;;;;4981987;28;20481;-80
2023/03/06 02:03:14;;;;;;;2.23;0.60;;;2.10;99.90;;;;;;4997113;28;20830;-80
2023/03/06 02:05:41;;;;;;;2.40;0.50;;;2.10;99.90;;;;;;4992535;28;20426;-81
2023/03/06 02:08:08;;;;;;;1.75;0.50;;;2.10;99.90;;;;;;4987621;28;21134;-80
2023/03/06 02:10:34;;;;;;;2.00;0.63;;;2.10;99.90;;;;;;4995200;28;20430;-80
2023/03/06 02:13:00;;;;;;;4.78;0.70;;;2.10;99.90;;;;;;5001530;28;20427;-80
2023/03/06 02:15:31;;;;;;;2.35;0.80;;;2.10;99.90;;;;;;5020382;28;20404;-81
2023/03/06 02:17:58;;;;;;;3.07;0.90;;;2.10;99.90;;;;;;5019451;28;20458;-81
2023/03/06 02:20:35;;;;;;;3.45;0.70;;;2.10;99.90;;;;;;4985787;28;20411;-81
2023/03/06 02:23:10;;;;;;;3.75;0.93;;;2.10;99.90;;;;;;4984577;28;20503;-81
2023/03/06 02:25:47;;;;;;;4.07;0.73;;;2.10;99.90;;;;;;5008640;28;20413;-81
2023/03/06 02:28:18;;;;;;;4.22;1.00;;;2.10;99.90;;;;;;4964035;28;20417;-81
2023/03/06 02:30:46;;;;;;;3.73;1.00;;;2.10;99.90;;;;;;4973874;28;20508;-80
2023/03/06 02:33:25;;;;;;;4.45;1.00;;;2.10;99.90;;;;;;4964158;28;20415;-80
2023/03/06 02:35:59;;;;;;;5.53;1.20;;;2.20;99.90;;;;;;4972716;28;20421;-80
2023/03/06 02:38:28;;;;;;;5.17;1.47;;;2.20;99.90;;;;;;4988553;28;20517;-80
2023/03/06 02:40:56;;;;;;;5.15;1.70;;;2.20;99.90;;;;;;5000668;28;20806;-80
2023/03/06 02:43:27;;;;;;;4.82;1.27;;;2.20;99.90;;;;;;4986219;28;20442;-80
2023/03/06 02:45:53;;;;;;;6.75;1.60;;;2.20;99.90;;;;;;4993823;28;20415;-79
2023/03/06 02:48:19;;;;;;;4.38;1.40;;;2.20;99.90;;;;;;5004221;28;20400;-80
2023/03/06 02:50:46;;;;;;;5.78;2.15;;;2.20;99.90;;;;;;4990047;28;20417;-80
2023/03/06 02:53:13;;;;;;;5.78;2.30;;;2.20;99.90;;;;;;4990439;28;20448;-80
2023/03/06 02:55:39;;;;;;;8.25;2.20;;;2.10;99.90;;;;;;4996770;28;20420;-80
2023/03/06 02:58:05;;;;;;;5.13;2.10;;;2.10;99.90;;;;;;5008329;28;20832;-81
2023/03/06 03:00:32;;;;;;;6.22;2.20;;;2.10;99.90;;;;;;4990647;28;21135;-80
2023/03/06 03:02:58;;;;;;;4.60;1.77;;;2.10;99.90;;;;;;4991999;28;20436;-80
2023/03/06 03:05:23;;;;;;;4.55;1.67;;;2.10;99.90;;;;;;4974402;28;20401;-79
2023/03/06 03:07:49;;;;;;;5.70;1.70;;;2.10;99.90;;;;;;4992372;28;20408;-80
2023/03/06 03:10:15;;;;;;;4.30;1.50;;;2.10;99.90;;;;;;4980611;28;20478;-80
2023/03/06 03:12:41;;;;;;;4.15;1.45;;;2.10;99.90;;;;;;4991401;28;20408;-80
2023/03/06 03:15:08;;;;;;;3.25;1.50;;;2.10;99.90;;;;;;4976783;28;20839;-80
2023/03/06 03:17:38;;;;;;;3.60;1.83;;;2.10;99.90;;;;;;4991790;28;20464;-80
2023/03/06 03:20:07;;;;;;;4.53;1.88;;;2.10;99.90;;;;;;5009711;28;20415;-80
2023/03/06 03:22:33;;;;;;;3.85;1.58;;;2.10;99.90;;;;;;5000964;28;21016;-80
2023/03/06 03:24:58;;;;;;;3.05;1.70;;;2.10;99.90;;;;;;4978129;28;20407;-80
2023/03/06 03:27:24;;;;;;;3.40;1.50;;;2.10;99.90;;;;;;4972070;28;20469;-80
2023/03/06 03:29:50;;;;;;;3.17;1.57;;;2.00;99.90;;;;;;4974349;28;20471;-80
2023/03/06 03:32:15;;;;;;;4.75;1.73;;;2.00;99.90;;;;;;4991123;28;20410;-80
2023/03/06 03:34:41;;;;;;;3.40;1.33;;;2.00;99.90;;;;;;4973898;28;20938;-80
2023/03/06 03:37:07;;;;;;;3.58;1.77;;;2.00;99.90;;;;;;4982847;28;20494;-80
2023/03/06 03:39:32;;;;;;;3.83;1.77;;;2.00;99.90;;;;;;4978714;28;20984;-80
2023/03/06 03:41:58;;;;;;;3.03;1.47;;;2.00;99.90;;;;;;4982209;28;20450;-80
2023/03/06 03:44:24;;;;;;;2.75;1.42;;;2.00;99.90;;;;;;4975502;28;20405;-79
2023/03/06 03:46:49;;;;;;;4.27;1.50;;;1.90;99.90;;;;;;4972728;28;20421;-79
2023/03/06 03:49:15;;;;;;;2.70;1.30;;;1.90;99.90;;;;;;4977251;28;20412;-79
2023/03/06 03:51:40;;;;;;;2.97;1.20;;;1.90;99.90;;;;;;4990870;28;20414;-79
2023/03/06 03:54:06;;;;;;;3.43;1.40;;;1.90;99.90;;;;;;4975988;28;20409;-79
2023/03/06 03:56:32;;;;;;;3.80;1.60;;;1.90;99.90;;;;;;4975000;28;20457;-79
2023/03/06 03:58:58;;;;;;;3.80;1.25;;;1.80;99.90;;;;;;5009891;28;20410;-79
2023/03/06 04:01:24;;;;;;;3.90;1.52;;;1.90;99.90;;;;;;4967165;28;20785;-79
2023/03/06 04:03:50;;;;;;;3.25;1.30;;;1.80;99.90;;;;;;4992800;28;20407;-79
2023/03/06 04:06:16;;;;;;;4.13;1.42;;;1.90;99.90;;;;;;4990942;28;20480;-79
2023/03/06 04:08:42;;;;;;;2.72;1.23;;;1.90;99.90;;;;;;4980166;28;20421;-79
2023/03/06 04:11:07;;;;;;;2.58;1.25;;;1.90;99.90;;;;;;5008063;28;20400;-79
2023/03/06 04:13:33;;;;;;;4.23;1.60;;;1.80;99.90;;;;;;4983481;28;20399;-81
2023/03/06 04:15:59;;;;;;;3.92;1.40;;;1.90;99.90;;;;;;4974924;28;20763;-79
2023/03/06 04:18:25;;;;;;;2.90;1.55;;;1.90;99.90;;;;;;4971875;28;20927;-79
2023/03/06 04:20:51;;;;;;;2.58;1.15;;;1.90;99.90;;;;;;4962537;28;20454;-80
2023/03/06 04:23:18;;;;;;;3.40;1.20;;;1.90;99.90;;;;;;4992783;28;20549;-78
2023/03/06 04:25:44;;;;;;;3.10;1.30;;;1.90;99.90;;;;;;4999138;28;20404;-79
2023/03/06 04:28:11;;;;;;;3.50;1.30;;;1.90;99.90;;;;;;5004609;28;20495;-79
2023/03/06 04:30:36;;;;;;;2.55;1.27;;;2.00;99.90;;;;;;4972543;28;20489;-80
2023/03/06 04:33:03;;;;;;;4.72;1.50;;;2.00;99.90;;;;;;4996476;28;20510;-79
2023/03/06 04:35:28;;;;;;;3.67;1.48;;;2.00;99.90;;;;;;4983081;28;20414;-79
2023/03/06 04:37:54;;;;;;;4.47;1.40;;;2.00;99.90;;;;;;4978677;28;20463;-79
2023/03/06 04:40:27;;;;;;;4.40;1.47;;;2.00;99.90;;;;;;4975294;28;20407;-80
2023/03/06 04:42:53;;;;;;;4.95;1.58;;;2.00;99.90;;;;;;5001805;28;20928;-80
2023/03/06 04:45:19;;;;;;;4.45;1.80;;;1.90;99.90;;;;;;4974947;28;20407;-79
2023/03/06 04:47:45;;;;;;;3.90;1.67;;;1.90;99.90;;;;;;4981644;28;20415;-79
2023/03/06 04:50:11;;;;;;;3.85;1.60;;;1.90;99.90;;;;;;4974929;28;20469;-79
2023/03/06 04:52:39;;;;;;;3.80;1.58;;;1.90;99.90;;;;;;5005070;28;20401;-80
2023/03/06 04:55:07;;;;;;;4.35;1.73;;;1.90;99.90;;;;;;4979237;28;20406;-80
2023/03/06 04:57:38;;;;;;;3.85;1.73;;;1.90;99.90;;;;;;4966475;28;20488;-80
2023/03/06 05:00:07;;;;;;;5.07;1.80;;;1.90;99.90;;;;;;4978082;28;20859;-79
2023/03/06 05:02:33;;;;;;;4.65;1.70;;;1.90;99.90;;;;;;4990617;28;20438;-80
2023/03/06 05:04:59;;;;;;;4.97;1.70;;;1.90;99.90;;;;;;4985678;28;20415;-80
2023/03/06 05:07:25;;;;;;;5.18;1.83;;;1.90;99.90;;;;;;4993564;28;20419;-80
2023/03/06 05:09:50;;;;;;;5.30;1.80;;;1.90;99.90;;;;;;5003981;28;20406;-80
2023/03/06 05:12:16;;;;;;;4.97;1.93;;;1.90;99.90;;;;;;4992427;28;20412;-80
2023/03/06 05:14:42;;;;;;;4.30;2.08;;;1.90;99.90;;;;;;4992735;28;20783;-79
2023/03/06 05:17:08;;;;;;;6.53;2.72;;;1.90;99.90;;;;;;4984617;28;20413;-79
2023/03/06 05:19:34;;;;;;;7.32;2.50;;;1.90;99.90;;;;;;4986759;28;20420;-80
2023/03/06 05:21:59;;;;;;;6.93;2.60;;;1.80;99.90;;;;;;5014964;28;20435;-80
2023/03/06 05:24:25;;;;;;;7.57;2.67;;;1.80;99.90;;;;;;4986821;28;20440;-79
2023/03/06 05:26:50;;;;;;;6.07;2.63;;;1.80;99.90;;;;;;4977294;28;20766;-79
2023/03/06 05:29:16;;;;;;;7.20;2.50;;;1.80;99.90;;;;;;4992171;28;20925;-80
2023/03/06 05:31:41;;;;;;;5.05;2.33;;;1.80;99.90;;;;;;5006066;28;20445;-80
2023/03/06 05:34:11;;;;;;;6.97;2.20;;;1.80;99.90;;;;;;4974950;28;20410;-80
2023/03/06 05:36:37;;;;;;;5.07;2.28;;;1.70;99.90;;;;;;5004618;28;20519;-80
2023/03/06 05:39:02;;;;;;;4.88;1.95;;;1.70;99.90;;;;;;4985915;28;20837;-79
2023/03/06 05:41:28;;;;;;;6.30;2.20;;;1.70;99.90;;;;;;4986896;28;20406;-79
2023/03/06 05:43:55;;;;;;;5.63;2.33;;;1.70;99.90;;;;;;4963156;28;20426;-80
2023/03/06 05:46:21;;;;;;;6.85;1.95;;;1.70;99.90;;;;;;4977576;28;20455;-80
2023/03/06 05:48:47;;;;;;;6.88;2.33;;;1.70;99.90;;;;;;4975541;28;20464;-80
2023/03/06 05:51:13;;;;;;;5.13;2.05;;;1.70;99.90;;;;;;5008984;28;20427;-80
2023/03/06 05:53:41;;;;;;;3.88;1.95;;;1.70;99.90;;;;;;4975144;28;20969;-80
2023/03/06 05:56:10;;;;;;;5.68;1.85;;;1.60;99.90;;;;;;5000279;28;20404;-80
2023/03/06 05:58:38;;;;;;;5.43;1.98;;;1.60;99.90;;;;;;4992000;28;20419;-79
2023/03/06 06:01:12;;;;;;;4.20;1.77;;;1.60;99.90;;;;;;4992465;28;20812;-80
2023/03/06 06:03:38;;;;;;;5.22;1.80;;;1.60;99.90;;;;;;5008686;28;20935;-80
2023/03/06 06:06:06;;;;;;;4.35;1.85;;;1.60;99.90;;;;;;5009237;28;20405;-80
2023/03/06 06:08:32;;;;;;;5.70;1.90;;;1.60;99.90;;;;;;4991026;28;20416;-80
2023/03/06 06:10:58;;;;;;;4.80;1.90;;;1.60;99.90;;;;;;4991695;28;20409;-80
2023/03/06 06:13:23;;;;;;;5.30;1.90;;;1.60;99.90;;;;;;5009141;28;20535;-80
2023/03/06 06:15:49;;;;;;;5.70;2.40;;;1.60;99.90;;;;;;5003371;28;20491;-79
2023/03/06 06:18:15;;;;;;;5.72;2.10;;;1.60;99.90;;;;;;4989655;28;20416;-80
2023/03/06 06:20:41;;;;;;;5.15;2.25;;;1.60;99.90;;;;;;4983392;28;20408;-79
2023/03/06 06:23:06;;;;;;;4.87;2.47;;;1.50;99.90;;;;;;5009344;28;20448;-79
2023/03/06 06:25:32;;;;;;;5.40;2.20;;;1.50;99.90;;;;;;4991624;28;20938;-79
2023/03/06 06:27:58;;;;;;;5.63;2.67;;;1.50;99.90;;;;;;4991518;28;20520;-79
2023/03/06 06:30:24;;;;;;;5.53;2.63;;;1.40;99.90;;;;;;4991674;28;20409;-79
2023/03/06 06:32:49;;;;;;;8.15;2.35;;;1.40;99.90;;;;;;4991663;28;21145;-80
2023/03/06 06:35:15;;;;;;;5.70;2.40;;;1.40;99.90;;;;;;4992454;28;20772;-80
2023/03/06 06:37:41;;;;;;;5.03;2.08;;;1.40;99.90;;;;;;4991480;28;20473;-79
2023/03/06 06:40:08;;;;;;;6.78;2.50;;;1.40;99.90;;;;;;4992326;28;20466;-79
2023/03/06 06:42:35;;;;;;;4.30;2.40;;;1.40;99.90;;;;;;5009012;28;20439;-80
2023/03/06 06:45:02;;;;;;;6.30;2.30;;;1.30;99.90;;;;;;4982527;28;20443;-80
2023/03/06 06:47:27;;;;;;;5.35;2.25;;;1.40;99.90;;;;;;4991780;28;20971;-80
2023/03/06 06:49:54;;;;;;;5.73;2.27;;;1.30;99.90;;;;;;5008291;28;20424;-80
2023/03/06 06:52:21;;;;;;;7.80;2.37;;;1.30;99.90;;;;;;4975089;28;20404;-80
2023/03/06 06:54:47;;;;;;;6.65;2.28;;;1.30;99.90;;;;;;5003234;28;20826;-82
2023/03/06 06:57:13;;;;;;;5.18;2.60;;;1.30;99.90;;;;;;5005350;28;20400;-79
2023/03/06 06:59:39;;;;;;;6.70;2.38;;;1.30;99.90;;;;;;4974589;28;20413;-79
2023/03/06 07:02:05;;;;;;;6.00;2.67;;;1.30;99.90;;;;;;5003633;28;20508;-79
2023/03/06 07:04:30;;;;;;;5.35;2.63;;;1.30;99.90;;;;;;5008149;28;20417;-79
2023/03/06 07:06:56;;;;;;;6.73;2.80;;;1.30;99.90;;;;;;5005203;28;20420;-79
2023/03/06 07:09:22;;;;;;;8.23;2.95;;;1.30;99.90;;;;;;5005510;28;20511;-79
2023/03/06 07:11:48;;;;;;;6.93;3.07;;;1.30;99.90;;;;;;4988088;28;21046;-80
2023/03/06 07:14:14;;;;;;;7.47;3.10;;;1.30;99.90;;;;;;5009839;28;20919;-80
2023/03/06 07:16:39;;;;;;;6.75;2.95;;;1.30;99.90;;;;;;4973370;28;20806;-80
2023/03/06 07:19:06;;;;;;;8.73;3.40;;;1.30;99.90;;;;;;4990360;28;20466;-79
2023/03/06 07:21:32;;;;;;;9.13;3.22;;;1.30;99.90;;;;;;5008291;28;20405;-79
2023/03/06 07:23:58;;;;;;;8.23;2.90;;;1.30;99.90;;;;;;4992801;28;20932;-80
2023/03/06 07:26:26;;;;;;;8.97;3.07;;;1.30;99.90;;;;;;4976504;28;20409;-79
2023/03/06 07:28:52;;;;;;;8.02;2.85;;;1.30;99.90;;;;;;4991057;28;20484;-80
2023/03/06 07:31:24;;;;;;;7.25;2.70;;;1.30;99.90;;;;;;4989431;28;20496;-79
2023/03/06 07:33:51;;;;;;;6.28;3.10;;;1.30;99.90;;;;;;5000273;28;20788;-79
2023/03/06 07:36:18;;;;;;;8.00;2.83;;;1.30;99.90;;;;;;5008724;28;20404;-80
2023/03/06 07:38:43;;;;;;;10.00;2.90;;;1.30;99.90;;;;;;4990743;28;20421;-80
2023/03/06 07:41:12;;;;;;;7.45;3.70;;;1.30;99.90;;;;;;4990917;28;20413;-80
2023/03/06 07:43:42;;;;;;;9.27;4.35;;;1.40;99.90;;;;;;4974767;28;20781;-80
2023/03/06 07:46:09;;;;;;;8.43;4.40;;;1.40;99.90;;;;;;4990582;28;20400;-80
2023/03/06 07:48:36;;;;;;;10.18;4.53;;;1.40;99.90;;;;;;5008144;28;20448;-79
2023/03/06 07:51:13;;;;;;;11.50;5.22;;;1.40;99.90;;;;;;4980961;28;20412;-79
2023/03/06 07:53:38;;;;;;;8.35;4.53;;;1.40;99.90;;;;;;5007729;28;20407;-79
2023/03/06 07:56:07;;;;;;;9.53;4.80;;;1.50;99.90;;;;;;5001830;28;20414;-79
2023/03/06 07:58:35;;;;;;;8.00;4.57;;;1.50;99.90;;;;;;5004353;28;21053;-79
2023/03/06 08:01:06;;;;;;;10.98;4.80;;;1.50;99.90;;;;;;5008945;28;20896;-79
2023/03/06 08:03:32;;;;;;;8.40;4.60;;;1.50;99.90;;;;;;4984164;28;20443;-80
2023/03/06 08:06:05;;;;;;;9.00;4.25;;;1.60;99.90;;;;;;5000944;28;20450;-79
2023/03/06 08:08:33;;;;;;;10.23;4.40;;;1.60;99.90;;;;;;4988053;28;20871;-79
2023/03/06 08:10:59;;;;;;;8.10;4.40;;;1.70;99.90;;;;;;4983360;28;20477;-81
2023/03/06 08:13:24;;;;;;;10.38;4.82;;;1.80;99.90;;;;;;4978644;28;20417;-80
2023/03/06 08:15:50;;;;;;;8.63;4.70;;;1.90;99.90;;;;;;5000572;28;20465;-81
2023/03/06 08:18:15;;;;;;;8.93;4.77;;;2.00;99.90;;;;;;5027817;28;20399;-80
2023/03/06 08:20:41;;;;;;;8.90;5.00;;;2.20;99.90;;;;;;5003446;28;20456;-81
2023/03/06 08:23:07;;;;;;;8.00;4.70;;;2.40;99.90;;;;;;4998609;28;20520;-80
2023/03/06 08:25:32;;;;;;;9.27;3.83;;;2.50;99.90;;;;;;4964476;28;20496;-81
2023/03/06 08:27:58;;;;;;;6.10;3.70;;;2.70;99.90;;;;;;4973923;28;20424;-81
2023/03/06 08:30:23;;;;;;;7.17;3.87;;;2.70;99.90;;;;;;4989653;28;20413;-82
2023/03/06 08:32:49;;;;;;;7.85;4.35;;;2.80;99.90;;;;;;4999681;28;20421;-81
2023/03/06 08:35:15;;;;;;;8.63;3.67;;;2.80;99.90;;;;;;4967724;28;20409;-81
2023/03/06 08:37:40;;;;;;;8.20;3.60;;;2.90;99.90;;;;;;4993430;28;20506;-81
2023/03/06 08:40:07;;;;;;;5.65;3.42;;;2.90;99.90;;;;;;4987043;28;20405;-81
2023/03/06 08:42:32;;;;;;;6.00;3.20;;;2.90;99.90;;;;;;4995758;28;20813;-81
2023/03/06 08:44:58;;;;;;;6.57;3.20;;;2.90;99.90;;;;;;4976116;28;20425;-81
2023/03/06 08:47:24;;;;;;;7.50;3.17;;;2.80;99.90;;;;;;4989474;28;20404;-79
2023/03/06 08:49:49;;;;;;;5.10;3.03;;;2.80;99.90;;;;;;4994366;28;20411;-79
2023/03/06 08:52:15;;;;;;;6.23;2.97;;;2.70;99.90;;;;;;4983306;28;20417;-79
2023/03/06 08:54:41;;;;;;;5.40;2.80;;;2.70;99.90;;;;;;4967142;28;21083;-79
2023/03/06 08:57:08;;;;;;;6.75;3.40;;;2.70;99.90;;;;;;4995131;28;20412;-80
2023/03/06 08:59:34;;;;;;;5.40;3.00;;;2.70;99.90;;;;;;4993031;28;21111;-80
2023/03/06 09:02:00;;;;;;;7.38;3.22;;;2.70;99.90;;;;;;4976628;28;20920;-80
2023/03/06 09:04:30;;;;;;;6.80;2.95;;;2.80;99.90;;;;;;4978221;28;20406;-80
2023/03/06 09:06:55;;;;;;;6.57;3.15;;;2.80;99.90;;;;;;5006354;28;20437;-80
2023/03/06 09:09:21;;;;;;;5.70;2.90;;;2.80;99.90;;;;;;4995369;28;20434;-79
2023/03/06 09:11:47;;;;;;;5.57;2.77;;;2.90;99.90;;;;;;4990635;28;20401;-80
2023/03/06 09:14:13;;;;;;;5.78;3.08;;;2.90;99.90;;;;;;4984787;28;20405;-80
2023/03/06 09:16:38;;;;;;;5.28;2.90;;;3.00;99.90;;;;;;4983317;28;20430;-80
2023/03/06 09:19:04;;;;;;;5.60;2.60;;;3.10;99.90;;;;;;4984577;28;20441;-80
2023/03/06 09:21:30;;;;;;;4.70;2.47;;;3.10;99.90;;;;;;4981493;28;20409;-80
2023/03/06 09:23:55;;;;;;;4.18;2.40;;;3.20;99.90;;;;;;4993032;28;20755;-80
2023/03/06 09:26:21;;;;;;;6.65;3.60;;;3.30;99.90;;;;;;5007058;28;20412;-80
2023/03/06 09:28:47;;;;;;;5.07;2.60;;;3.40;99.90;;;;;;4977255;28;20936;-80
2023/03/06 09:31:15;;;;;;;4.40;2.60;;;3.60;99.90;;;;;;4992625;28;20471;-80
2023/03/06 09:33:41;;;;;;;6.47;2.70;;;3.70;99.90;;;;;;4992700;28;20417;-80
2023/03/06 09:36:12;;;;;;;3.90;2.63;;;3.80;99.90;;;;;;5010727;28;20491;-80
2023/03/06 09:38:38;;;;;;;4.60;2.42;;;3.80;99.90;;;;;;5001098;28;20406;-80
2023/03/06 09:41:25;;;;;;;7.20;2.22;;;4.00;99.90;;;;;;4988439;28;20432;-80
2023/03/06 09:44:04;;;;;;;4.63;2.00;;;4.20;99.90;;;;;;4975686;28;20438;-80
2023/03/06 09:46:51;;;;;;;5.93;2.25;;;4.40;99.90;;;;;;4994597;28;20417;-81
2023/03/06 09:49:42;;;;;;;4.57;2.08;;;4.70;99.90;;;;;;4979702;28;20440;-80
2023/03/06 09:52:32;;;;;;;4.20;1.40;;;5.00;99.90;;;;;;4990548;28;20444;-80
2023/03/06 09:55:08;;;;;;;5.57;1.40;;;5.50;99.90;;;;;;4969119;28;20525;-81
2023/03/06 09:57:59;;;;;;;5.20;1.30;;;5.80;99.90;;;;;;4970802;28;20414;-81
2023/03/06 10:00:59;;;;;;;3.47;1.17;;;6.00;99.90;;;;;;4997108;28;20421;-81
2023/03/06 10:03:45;;;;;;;2.75;1.23;;;6.20;99.90;;;;;;4973399;28;20436;-81
2023/03/06 10:06:49;;;;;;;3.42;1.15;;;6.30;99.90;;;;;;4995538;28;20521;-80
2023/03/06 10:09:20;;;;;;;4.00;1.20;;;6.50;99.90;;;;;;5005806;28;20493;-80
2023/03/06 10:12:14;;;;;;;3.08;1.10;;;6.70;99.90;;;;;;4985704;28;20941;-80
2023/03/06 10:14:45;;;;;;;2.70;0.98;;;6.70;99.90;;;;;;5004243;28;20420;-81
2023/03/06 10:17:20;;;;;;;2.50;0.93;;;7.00;99.90;;;;;;5009411;28;20419;-80
2023/03/06 10:19:47;;;;;;;4.13;1.00;;;7.20;99.90;;;;;;4974199;28;20410;-81
2023/03/06 10:22:29;;;;;;;2.53;0.80;;;7.40;99.90;;;;;;5023605;28;20423;-81
2023/03/06 10:25:15;;;;;;;3.77;0.80;;;7.70;99.90;;;;;;4982983;28;20409;-81
2023/03/06 10:27:49;;;;;;;2.70;0.40;;;7.90;99.90;;;;;;4991033;28;20413;-81
2023/03/06 10:30:39;;;;;;;3.38;0.60;;;8.20;99.90;;;;;;4965171;28;20912;-82
2023/03/06 10:33:34;;;;;;;3.42;0.50;;;8.40;99.90;;;;;;4975262;28;20829;-81
2023/03/06 10:36:00;;;;;;;2.90;0.60;;;8.40;99.90;;;;;;4988099;28;20420;-81
2023/03/06 10:38:31;;;;;;;3.17;0.40;;;8.50;99.90;;;;;;4975599;28;20409;-81
2023/03/06 10:41:12;;;;;;;3.28;0.45;;;8.80;99.90;;;;;;4971712;28;20414;-81
2023/03/06 10:44:04;;;;;;;3.50;0.70;;;9.20;99.90;;;;;;4984866;28;20451;-80
2023/03/06 10:46:31;;;;;;;2.13;0.30;;;9.60;99.90;;;;;;4977980;28;20420;-81
2023/03/06 10:49:03;;;;;;;3.78;0.40;;;9.80;99.90;;;;;;4991028;28;20421;-81
2023/03/06 10:51:29;;;;;;;3.25;0.32;;;9.90;99.90;;;;;;5009450;28;20927;-80
2023/03/06 10:53:57;;;;;;;2.70;0.20;;;10.00;99.90;;;;;;4990599;28;20405;-81
2023/03/06 10:56:28;;;;;;;2.60;0.25;;;10.20;99.90;;;;;;4994433;28;20501;-81
2023/03/06 10:59:11;;;;;;;3.33;0.40;;;10.70;99.90;;;;;;4984325;28;20418;-81
2023/03/06 11:01:43;;;;;;;2.15;0.28;;;11.20;99.90;;;;;;4984491;28;20423;-81
2023/03/06 11:04:22;;;;;;;1.73;0.20;;;11.00;99.90;;;;;;4996647;28;20412;-81
2023/03/06 11:07:14;;;;;;;3.10;0.20;;;10.40;99.90;;;;;;5007485;28;20425;-81
2023/03/06 11:10:06;;;;;;;2.70;0.20;;;10.40;99.90;;;;;;4983525;28;20466;-83
2023/03/06 11:12:38;;;;;;;1.85;0.30;;;11.00;99.90;;;;;;4994057;28;20953;-80
2023/03/06 11:15:07;;;;;;;2.53;0.47;;;10.70;99.90;;;;;;4987714;28;20478;-81
2023/03/06 11:17:35;;;;;;;2.97;0.45;;;10.40;99.90;;;;;;4998906;28;20413;-81
2023/03/06 11:20:21;;;;;;;1.45;0.30;;;10.60;99.90;;;;;;4989547;28;20420;-81
2023/03/06 11:23:06;;;;;;;2.80;0.40;;;11.40;99.90;;;;;;5007964;28;20440;-82
2023/03/06 11:25:50;;;;;;;2.58;0.28;;;11.90;99.90;;;;;;4990175;28;20465;-83
2023/03/06 11:28:27;;;;;;;2.65;0.30;;;11.90;99.90;;;;;;4995251;28;20417;-81
2023/03/06 11:31:19;;;;;;;2.40;0.40;;;11.40;99.90;;;;;;4990406;28;20986;-80
2023/03/06 11:34:00;;;;;;;1.35;0.20;;;10.60;99.90;;;;;;5007774;28;20445;-80
2023/03/06 11:36:46;;;;;;;1.45;0.10;;;10.70;99.90;;;;;;4989639;28;20504;-81
2023/03/06 11:39:25;;;;;;;2.97;0.20;;;11.50;99.90;;;;;;4989669;28;20435;-81
2023/03/06 11:42:25;;;;;;;2.45;0.60;;;12.20;99.90;;;;;;4976450;28;20418;-81
2023/03/06 11:44:51;;;;;;;0.82;0.20;;;13.00;99.90;;;;;;5006823;28;20416;-81
2023/03/06 11:47:32;;;;;;;3.00;0.50;;;13.30;99.90;;;;;;4974689;28;20459;-81
2023/03/06 11:50:40;;;;;;;2.47;0.43;;;13.60;99.90;;;;;;5007233;28;20902;-81
2023/03/06 11:53:11;;;;;;;2.10;0.10;;;13.90;99.90;;;;;;4975097;28;20417;-82
2023/03/06 11:55:39;;;;;;;1.38;0.30;;;13.90;97.40;;;;;;4990638;28;21122;-81
2023/03/06 11:58:26;;;;;;;1.83;0.20;;;13.90;98.50;;;;;;4989867;28;20413;-81
2023/03/06 12:01:03;;;;;;;1.33;0.20;;;13.60;96.60;;;;;;5007277;28;20916;-81
2023/03/06 12:03:57;;;;;;;2.95;0.30;;;13.20;97.30;;;;;;4973967;28;20504;-81
2023/03/06 12:06:56;;;;;;;4.00;0.30;;;12.90;96.50;;;;;;4991713;28;20428;-81
2023/03/06 12:09:37;;;;;;;2.08;0.20;;;12.90;97.70;;;;;;5004857;28;21218;-81
2023/03/06 12:12:05;;;;;;;2.45;0.35;;;12.80;98.50;;;;;;4994108;28;20435;-80
2023/03/06 12:14:53;;;;;;;1.10;0.20;;;12.60;97.00;;;;;;4994213;28;20420;-81
2023/03/06 12:17:34;;;;;;;2.08;0.20;;;12.80;97.80;;;;;;5022597;28;20812;-81
2023/03/06 12:20:29;;;;;;;1.83;0.20;;;13.00;93.70;;;;;;4977262;28;20421;-82
2023/03/06 12:23:09;;;;;;;2.42;0.20;;;12.90;95.80;;;;;;5010145;28;20419;-81
2023/03/06 12:26:03;;;;;;;1.50;0.20;;;13.00;96.20;;;;;;4978146;28;20423;-81
2023/03/06 12:28:54;;;;;;;1.20;0.10;;;12.40;95.70;;;;;;4975443;28;20420;-80
2023/03/06 12:31:34;;;;;;;2.37;0.50;;;11.50;96.20;;;;;;5009631;28;20920;-81
2023/03/06 12:34:22;;;;;;;2.00;0.20;;;11.70;99.60;;;;;;4975095;28;20521;-81
2023/03/06 12:37:03;;;;;;;1.83;0.20;;;13.20;97.60;;;;;;4976840;28;20427;-81
2023/03/06 12:39:47;;;;;;;;;;;14.20;94.70;;;;;;4965235;28;20103;-81
2023/03/06 12:42:35;;;;;;;;;;;14.20;91.50;;;;;;4989303;28;19921;-81
2023/03/06 12:45:07;;;;;;;;;;;13.50;91.30;;;;;;4992944;28;20398;-80
2023/03/06 12:47:39;;;;;;;;;;;13.20;92.60;;;;;;4980723;28;19925;-80
2023/03/06 12:50:15;;;;;;;;;;;13.10;93.60;;;;;;4962551;28;19945;-81
2023/03/06 12:52:41;;;;;;;;;;;13.40;92.80;;;;;;4982530;28;19921;-81
2023/03/06 12:55:12;;;;;;;;;;;13.50;90.40;;;;;;4978431;28;19921;-81
2023/03/06 12:57:37;;;;;;;;;;;12.80;90.30;;;;;;4993395;28;19922;-81
2023/03/06 13:00:03;;;;;;;;;;;12.00;92.50;;;;;;4985395;28;20298;-81
2023/03/06 13:02:44;;;;;;;;;;;11.40;93.50;;;;;;5006385;28;19922;-81
2023/03/06 13:05:09;;;;;;;;;;;11.00;93.50;;;;;;4982533;28;19937;-80
2023/03/06 13:07:44;;;;;;;;;;;10.60;94.60;;;;;;4988763;28;19922;-81
2023/03/06 13:10:13;;;;;;;;;;;10.60;95.10;;;;;;4981596;28;20035;-81
2023/03/06 13:12:46;;;;;;;;;;;11.10;95.90;;;;;;4977694;28;20023;-81
2023/03/06 13:15:26;;;;;;;;;;;11.40;94.90;;;;;;4978849;28;20471;-81